Williams-Sonoma Current Ratio 2006-2020 | WSM

Current and historical current ratio for Williams-Sonoma (WSM) from 2006 to 2020. Current ratio can be defined as a liquidity ratio that measures a company's ability to pay short-term obligations. Williams-Sonoma current ratio for the three months ending October 31, 2020 was .
Williams-Sonoma Current Ratio Historical Data
Date Current Assets Current Liabilities Current Ratio
2020-10-31 $2.14B $1.46B 1.46
2020-07-31 $2.26B $1.66B 1.36
2020-04-30 $2.15B $1.68B 1.28
2020-01-31 $1.76B $1.61B 1.09
2019-10-31 $1.66B $1.29B 1.29
2019-07-31 $1.56B $1.19B 1.31
2019-04-30 $1.49B $1.11B 1.33
2019-01-31 $1.69B $1.08B 1.58
2018-10-31 $1.59B $1.04B 1.54
2018-07-31 $1.48B $0.95B 1.56
2018-04-30 $1.52B $0.88B 1.73
2018-01-31 $1.64B $1.01B 1.62
2017-10-31 $1.46B $1.14B 1.28
2017-07-31 $1.36B $1.02B 1.34
2017-04-30 $1.29B $0.91B 1.42
2017-01-31 $1.37B $0.96B 1.42
2016-10-31 $1.35B $1.03B 1.31
2016-07-31 $1.28B $0.96B 1.34
2016-04-30 $1.21B $0.87B 1.39
2016-01-31 $1.34B $1.00B 1.34
2015-10-31 $1.50B $1.10B 1.37
2015-07-31 $1.47B $1.02B 1.44
2015-04-30 $1.32B $0.83B 1.60
2015-01-31 $1.39B $0.88B 1.59
2014-10-31 $1.38B $0.94B 1.48
2014-07-31 $1.26B $0.75B 1.68
2014-04-30 $1.28B $0.74B 1.74
2014-01-31 $1.42B $0.86B 1.65
2013-10-31 $1.32B $0.83B 1.59
2013-07-31 $1.23B $0.68B 1.81
2013-04-30 $1.19B $0.56B 2.12
2013-01-31 $1.32B $0.66B 2.00
2012-10-31 $1.21B $0.57B 2.11
2012-07-31 $1.20B $0.55B 2.19
2012-04-30 $1.19B $0.52B 2.29
2012-01-31 $1.28B $0.57B 2.23
2011-10-31 $1.26B $0.56B 2.24
2011-07-31 $1.22B $0.51B 2.41
2011-04-30 $1.22B $0.49B 2.51
2011-01-31 $1.35B $0.61B 2.20
2010-10-31 $1.22B $0.56B 2.18
2010-07-31 $1.16B $0.50B 2.30
2010-04-30 $1.13B $0.47B 2.40
2010-01-31 $1.18B $0.56B 2.09
2009-10-31 $1.00B $0.48B 2.10
2009-07-31 $0.91B $0.43B 2.15
2009-04-30 $0.88B $0.41B 2.14
2009-01-31 $0.94B $0.46B 2.04
2008-10-31 $0.97B $0.54B 1.81
2008-07-31 $0.96B $0.49B 1.96
2008-04-30 $1.00B $0.56B 1.78
2008-01-31 $1.05B $0.61B 1.72
2007-10-31 $1.03B $0.65B 1.60
2007-07-31 $0.97B $0.53B 1.82
2007-04-30 $0.98B $0.47B 2.08
2007-01-31 $1.10B $0.63B 1.75
2006-10-31 $1.01B $0.54B 1.87
2006-07-31 $0.99B $0.50B 2.00
2006-04-30 $1.02B $0.49B 2.07
2006-01-31 $1.08B $0.59B 1.84
2005-10-31 $0.89B $0.49B 1.81
2005-07-31 $0.86B $0.45B 1.90
2005-04-30 $0.82B $0.45B 1.83
2005-01-31 $0.87B $0.52B 1.67
Sector Industry Market Cap Revenue
Retail/Wholesale Retail - Home Furnishings $8.517B $5.898B
Williams-Sonoma, Inc. is a specialty retailer of high-quality products for the home. These products, representing eight distinct merchandise strategies - Williams Sonoma, Pottery Barn, Pottery Barn Kids, West Elm, PBteen, Williams Sonoma Home, Rejuvenation, and Mark and Graham - are marketed through e-commerce websites, direct mail catalogs and retail stores. Williams-Sonoma, Inc. portfolio has been fueled by three areas of strategic investment: brand experimentation and innovation, for a best-in-class approach to multi-channel retail experiences; operational excellence across the enterprise, from quality product and sourcing, to efficient manufacturing and supply chain; and culture and corporate social responsibility, from commitments to foster women in leadership and embrace diversity, to a healthy impact on community and environment. Williams-Sonoma, Inc. is one of the United States' largest e-commerce retailers with some of the best known and most beloved brands in home furnishings.
Stock Name Country Market Cap PE Ratio
RH (RH) United States $8.843B 35.74
Tempur Sealy (TPX) United States $5.198B 15.92
At Home Group (HOME) United States $1.217B 16.19
Haverty Furniture (HVT.A) $0.525B 30.66
Haverty Furniture (HVT) United States $0.496B 28.96
Lovesac (LOVE) United States $0.463B 0.00
Ethan Allen Interiors (ETH) United States $0.458B 36.54
Casper Sleep (CSPR) United States $0.255B 0.00
Kirkland's (KIRK) United States $0.204B 0.00